sensor_id;sensor_type;location;lat;lon;timestamp;P1;durP1;ratioP1;P2;durP2;ratioP2
31112;SDS011;17763;48.730;9.136;2023-03-13T00:01:28;9.73;;;4.20;;
31112;SDS011;17763;48.730;9.136;2023-03-13T00:04:02;16.10;;;5.28;;
31112;SDS011;17763;48.730;9.136;2023-03-13T00:06:32;14.57;;;5.15;;
31112;SDS011;17763;48.730;9.136;2023-03-13T00:09:02;15.07;;;4.95;;
31112;SDS011;17763;48.730;9.136;2023-03-13T00:11:31;17.38;;;4.60;;
31112;SDS011;17763;48.730;9.136;2023-03-13T00:13:57;10.27;;;4.90;;
31112;SDS011;17763;48.730;9.136;2023-03-13T00:16:24;12.75;;;4.68;;
31112;SDS011;17763;48.730;9.136;2023-03-13T00:18:52;10.73;;;5.15;;
31112;SDS011;17763;48.730;9.136;2023-03-13T00:21:19;14.38;;;4.68;;
31112;SDS011;17763;48.730;9.136;2023-03-13T00:23:46;15.02;;;5.43;;
31112;SDS011;17763;48.730;9.136;2023-03-13T00:26:14;9.75;;;5.25;;
31112;SDS011;17763;48.730;9.136;2023-03-13T00:28:43;13.02;;;6.10;;
31112;SDS011;17763;48.730;9.136;2023-03-13T00:31:16;17.05;;;6.53;;
31112;SDS011;17763;48.730;9.136;2023-03-13T00:33:45;16.73;;;9.02;;
31112;SDS011;17763;48.730;9.136;2023-03-13T00:36:13;15.30;;;5.65;;
31112;SDS011;17763;48.730;9.136;2023-03-13T00:38:52;14.00;;;5.75;;
31112;SDS011;17763;48.730;9.136;2023-03-13T00:41:20;11.15;;;4.88;;
31112;SDS011;17763;48.730;9.136;2023-03-13T00:43:47;9.95;;;4.85;;
31112;SDS011;17763;48.730;9.136;2023-03-13T00:46:14;12.13;;;5.22;;
31112;SDS011;17763;48.730;9.136;2023-03-13T00:48:41;10.52;;;4.18;;
31112;SDS011;17763;48.730;9.136;2023-03-13T00:51:07;13.32;;;4.50;;
31112;SDS011;17763;48.730;9.136;2023-03-13T00:53:34;10.88;;;4.70;;
31112;SDS011;17763;48.730;9.136;2023-03-13T00:56:01;16.88;;;4.70;;
31112;SDS011;17763;48.730;9.136;2023-03-13T00:58:29;10.52;;;5.18;;
31112;SDS011;17763;48.730;9.136;2023-03-13T01:03:32;8.75;;;5.00;;
31112;SDS011;17763;48.730;9.136;2023-03-13T01:05:58;14.50;;;5.60;;
31112;SDS011;17763;48.730;9.136;2023-03-13T01:08:25;12.10;;;4.57;;
31112;SDS011;17763;48.730;9.136;2023-03-13T01:10:59;15.15;;;5.63;;
31112;SDS011;17763;48.730;9.136;2023-03-13T01:13:26;13.23;;;5.60;;
31112;SDS011;17763;48.730;9.136;2023-03-13T01:15:55;16.83;;;5.53;;
31112;SDS011;17763;48.730;9.136;2023-03-13T01:18:21;11.63;;;5.05;;
31112;SDS011;17763;48.730;9.136;2023-03-13T01:20:48;12.27;;;4.97;;
31112;SDS011;17763;48.730;9.136;2023-03-13T01:23:14;16.15;;;4.75;;
31112;SDS011;17763;48.730;9.136;2023-03-13T01:25:40;10.45;;;5.50;;
31112;SDS011;17763;48.730;9.136;2023-03-13T01:28:06;16.20;;;4.85;;
31112;SDS011;17763;48.730;9.136;2023-03-13T01:30:31;15.95;;;4.50;;
31112;SDS011;17763;48.730;9.136;2023-03-13T01:32:57;13.82;;;4.93;;
31112;SDS011;17763;48.730;9.136;2023-03-13T01:35:22;12.98;;;4.50;;
31112;SDS011;17763;48.730;9.136;2023-03-13T01:37:52;14.63;;;4.90;;
31112;SDS011;17763;48.730;9.136;2023-03-13T01:40:18;11.23;;;4.95;;
31112;SDS011;17763;48.730;9.136;2023-03-13T01:42:48;11.82;;;4.90;;
31112;SDS011;17763;48.730;9.136;2023-03-13T01:57:05;12.73;;;4.70;;
31112;SDS011;17763;48.730;9.136;2023-03-13T02:00:02;12.30;;;4.33;;
31112;SDS011;17763;48.730;9.136;2023-03-13T02:02:37;11.23;;;4.30;;
31112;SDS011;17763;48.730;9.136;2023-03-13T02:05:05;11.77;;;3.97;;
31112;SDS011;17763;48.730;9.136;2023-03-13T02:08:18;8.65;;;3.75;;
31112;SDS011;17763;48.730;9.136;2023-03-13T02:10:25;9.27;;;3.38;;
31112;SDS011;17763;48.730;9.136;2023-03-13T02:12:53;14.95;;;4.28;;
31112;SDS011;17763;48.730;9.136;2023-03-13T02:15:20;9.85;;;3.55;;
31112;SDS011;17763;48.730;9.136;2023-03-13T02:17:48;6.03;;;2.58;;
31112;SDS011;17763;48.730;9.136;2023-03-13T02:20:15;5.47;;;2.78;;
31112;SDS011;17763;48.730;9.136;2023-03-13T02:23:05;6.30;;;2.40;;
31112;SDS011;17763;48.730;9.136;2023-03-13T02:25:49;6.53;;;2.25;;
31112;SDS011;17763;48.730;9.136;2023-03-13T02:28:22;8.00;;;2.65;;
31112;SDS011;17763;48.730;9.136;2023-03-13T02:30:52;4.13;;;1.90;;
31112;SDS011;17763;48.730;9.136;2023-03-13T02:33:20;6.47;;;1.88;;
31112;SDS011;17763;48.730;9.136;2023-03-13T02:35:50;7.82;;;2.58;;
31112;SDS011;17763;48.730;9.136;2023-03-13T02:38:19;7.88;;;2.40;;
31112;SDS011;17763;48.730;9.136;2023-03-13T02:40:48;7.25;;;2.00;;
31112;SDS011;17763;48.730;9.136;2023-03-13T02:43:26;6.32;;;2.05;;
31112;SDS011;17763;48.730;9.136;2023-03-13T02:48:36;3.60;;;1.70;;
31112;SDS011;17763;48.730;9.136;2023-03-13T02:51:11;3.95;;;1.38;;
31112;SDS011;17763;48.730;9.136;2023-03-13T02:54:31;5.65;;;1.85;;
31112;SDS011;17763;48.730;9.136;2023-03-13T02:56:57;2.92;;;1.77;;
31112;SDS011;17763;48.730;9.136;2023-03-13T02:59:25;2.47;;;1.60;;
31112;SDS011;17763;48.730;9.136;2023-03-13T03:01:52;2.40;;;1.40;;
31112;SDS011;17763;48.730;9.136;2023-03-13T03:04:21;4.75;;;1.67;;
31112;SDS011;17763;48.730;9.136;2023-03-13T03:06:48;3.45;;;1.75;;
31112;SDS011;17763;48.730;9.136;2023-03-13T03:09:14;7.97;;;1.90;;
31112;SDS011;17763;48.730;9.136;2023-03-13T03:11:43;5.25;;;1.75;;
31112;SDS011;17763;48.730;9.136;2023-03-13T03:14:10;2.92;;;1.55;;
31112;SDS011;17763;48.730;9.136;2023-03-13T03:16:39;5.07;;;1.50;;
31112;SDS011;17763;48.730;9.136;2023-03-13T03:19:05;3.67;;;1.30;;
31112;SDS011;17763;48.730;9.136;2023-03-13T03:21:31;4.60;;;1.77;;
31112;SDS011;17763;48.730;9.136;2023-03-13T03:23:57;5.78;;;1.60;;
31112;SDS011;17763;48.730;9.136;2023-03-13T03:26:23;6.57;;;2.40;;
31112;SDS011;17763;48.730;9.136;2023-03-13T03:28:49;6.00;;;1.58;;
31112;SDS011;17763;48.730;9.136;2023-03-13T03:31:15;4.05;;;1.73;;
31112;SDS011;17763;48.730;9.136;2023-03-13T03:33:41;4.22;;;1.25;;
31112;SDS011;17763;48.730;9.136;2023-03-13T03:36:11;4.13;;;1.40;;
31112;SDS011;17763;48.730;9.136;2023-03-13T03:38:39;3.33;;;1.13;;
31112;SDS011;17763;48.730;9.136;2023-03-13T03:41:05;2.15;;;1.20;;
31112;SDS011;17763;48.730;9.136;2023-03-13T03:43:32;2.33;;;0.98;;
31112;SDS011;17763;48.730;9.136;2023-03-13T03:45:58;1.42;;;0.95;;
31112;SDS011;17763;48.730;9.136;2023-03-13T03:48:26;2.45;;;1.05;;
31112;SDS011;17763;48.730;9.136;2023-03-13T03:50:52;2.72;;;1.10;;
31112;SDS011;17763;48.730;9.136;2023-03-13T03:53:18;2.30;;;1.08;;
31112;SDS011;17763;48.730;9.136;2023-03-13T03:55:44;3.58;;;0.98;;
31112;SDS011;17763;48.730;9.136;2023-03-13T03:58:11;3.33;;;1.10;;
31112;SDS011;17763;48.730;9.136;2023-03-13T04:00:37;2.78;;;1.25;;
31112;SDS011;17763;48.730;9.136;2023-03-13T04:03:03;2.28;;;0.98;;
31112;SDS011;17763;48.730;9.136;2023-03-13T04:05:29;3.25;;;1.02;;
31112;SDS011;17763;48.730;9.136;2023-03-13T04:07:54;1.38;;;1.00;;
31112;SDS011;17763;48.730;9.136;2023-03-13T04:10:20;2.40;;;0.93;;
31112;SDS011;17763;48.730;9.136;2023-03-13T04:12:46;2.03;;;1.10;;
31112;SDS011;17763;48.730;9.136;2023-03-13T04:15:14;3.58;;;0.80;;
31112;SDS011;17763;48.730;9.136;2023-03-13T04:17:42;2.15;;;1.02;;
31112;SDS011;17763;48.730;9.136;2023-03-13T04:20:08;0.73;;;0.73;;
31112;SDS011;17763;48.730;9.136;2023-03-13T04:22:35;3.05;;;0.80;;
31112;SDS011;17763;48.730;9.136;2023-03-13T04:25:01;1.00;;;0.65;;
31112;SDS011;17763;48.730;9.136;2023-03-13T04:27:26;1.95;;;0.68;;
31112;SDS011;17763;48.730;9.136;2023-03-13T04:29:52;2.67;;;0.90;;
31112;SDS011;17763;48.730;9.136;2023-03-13T04:32:17;3.45;;;1.00;;
31112;SDS011;17763;48.730;9.136;2023-03-13T04:34:46;1.65;;;0.60;;
31112;SDS011;17763;48.730;9.136;2023-03-13T04:37:11;1.05;;;0.60;;
31112;SDS011;17763;48.730;9.136;2023-03-13T04:39:37;2.42;;;0.70;;
31112;SDS011;17763;48.730;9.136;2023-03-13T04:42:02;2.05;;;0.70;;
31112;SDS011;17763;48.730;9.136;2023-03-13T04:44:31;0.85;;;0.60;;
31112;SDS011;17763;48.730;9.136;2023-03-13T04:46:58;3.35;;;1.00;;
31112;SDS011;17763;48.730;9.136;2023-03-13T04:49:24;1.35;;;0.70;;
31112;SDS011;17763;48.730;9.136;2023-03-13T04:51:50;0.60;;;0.60;;
31112;SDS011;17763;48.730;9.136;2023-03-13T04:54:15;2.55;;;0.55;;
31112;SDS011;17763;48.730;9.136;2023-03-13T04:56:41;1.52;;;0.80;;
31112;SDS011;17763;48.730;9.136;2023-03-13T04:59:07;2.88;;;0.98;;
31112;SDS011;17763;48.730;9.136;2023-03-13T05:01:33;1.27;;;0.68;;
31112;SDS011;17763;48.730;9.136;2023-03-13T05:03:59;1.20;;;0.88;;
31112;SDS011;17763;48.730;9.136;2023-03-13T05:06:27;1.90;;;0.60;;
31112;SDS011;17763;48.730;9.136;2023-03-13T05:08:53;1.10;;;0.73;;
31112;SDS011;17763;48.730;9.136;2023-03-13T05:11:21;1.75;;;0.70;;
31112;SDS011;17763;48.730;9.136;2023-03-13T05:13:51;1.77;;;0.68;;
31112;SDS011;17763;48.730;9.136;2023-03-13T05:16:17;1.35;;;0.88;;
31112;SDS011;17763;48.730;9.136;2023-03-13T05:18:46;1.35;;;0.60;;
31112;SDS011;17763;48.730;9.136;2023-03-13T05:21:12;2.33;;;0.60;;
31112;SDS011;17763;48.730;9.136;2023-03-13T05:23:37;1.10;;;0.90;;
31112;SDS011;17763;48.730;9.136;2023-03-13T05:26:06;0.60;;;0.50;;
31112;SDS011;17763;48.730;9.136;2023-03-13T05:28:31;5.43;;;1.15;;
31112;SDS011;17763;48.730;9.136;2023-03-13T05:30:57;0.52;;;0.50;;
31112;SDS011;17763;48.730;9.136;2023-03-13T05:33:22;1.58;;;0.80;;
31112;SDS011;17763;48.730;9.136;2023-03-13T05:35:48;1.75;;;0.88;;
31112;SDS011;17763;48.730;9.136;2023-03-13T05:38:14;1.20;;;0.68;;
31112;SDS011;17763;48.730;9.136;2023-03-13T05:40:39;0.55;;;0.50;;
31112;SDS011;17763;48.730;9.136;2023-03-13T05:43:05;1.17;;;0.63;;
31112;SDS011;17763;48.730;9.136;2023-03-13T05:45:31;0.85;;;0.60;;
31112;SDS011;17763;48.730;9.136;2023-03-13T05:47:57;1.25;;;0.70;;
31112;SDS011;17763;48.730;9.136;2023-03-13T05:50:25;1.30;;;0.50;;
31112;SDS011;17763;48.730;9.136;2023-03-13T05:52:51;1.30;;;0.70;;
31112;SDS011;17763;48.730;9.136;2023-03-13T05:55:17;1.05;;;0.60;;
31112;SDS011;17763;48.730;9.136;2023-03-13T05:57:44;1.05;;;0.60;;
31112;SDS011;17763;48.730;9.136;2023-03-13T06:00:10;0.60;;;0.60;;
31112;SDS011;17763;48.730;9.136;2023-03-13T06:02:37;0.60;;;0.60;;
31112;SDS011;17763;48.730;9.136;2023-03-13T06:05:02;0.75;;;0.63;;
31112;SDS011;17763;48.730;9.136;2023-03-13T06:07:28;0.73;;;0.60;;
31112;SDS011;17763;48.730;9.136;2023-03-13T06:09:54;0.70;;;0.40;;
31112;SDS011;17763;48.730;9.136;2023-03-13T06:12:21;0.60;;;0.60;;
31112;SDS011;17763;48.730;9.136;2023-03-13T06:14:49;0.68;;;0.50;;
31112;SDS011;17763;48.730;9.136;2023-03-13T06:17:15;0.77;;;0.55;;
31112;SDS011;17763;48.730;9.136;2023-03-13T06:19:41;2.78;;;0.70;;
31112;SDS011;17763;48.730;9.136;2023-03-13T06:22:07;0.40;;;0.40;;
31112;SDS011;17763;48.730;9.136;2023-03-13T06:24:32;1.38;;;0.63;;
31112;SDS011;17763;48.730;9.136;2023-03-13T06:26:58;1.55;;;0.60;;
31112;SDS011;17763;48.730;9.136;2023-03-13T06:29:24;5.35;;;1.00;;
31112;SDS011;17763;48.730;9.136;2023-03-13T06:31:49;2.45;;;0.80;;
31112;SDS011;17763;48.730;9.136;2023-03-13T06:34:16;0.60;;;0.60;;
31112;SDS011;17763;48.730;9.136;2023-03-13T06:36:42;0.50;;;0.50;;
31112;SDS011;17763;48.730;9.136;2023-03-13T06:39:08;1.02;;;0.52;;
31112;SDS011;17763;48.730;9.136;2023-03-13T06:41:34;0.50;;;0.50;;
31112;SDS011;17763;48.730;9.136;2023-03-13T06:44:00;0.90;;;0.50;;
31112;SDS011;17763;48.730;9.136;2023-03-13T06:46:25;0.50;;;0.50;;
31112;SDS011;17763;48.730;9.136;2023-03-13T06:48:51;0.73;;;0.50;;
31112;SDS011;17763;48.730;9.136;2023-03-13T06:51:18;0.70;;;0.50;;
31112;SDS011;17763;48.730;9.136;2023-03-13T06:53:45;1.52;;;0.73;;
31112;SDS011;17763;48.730;9.136;2023-03-13T06:56:14;0.52;;;0.52;;
31112;SDS011;17763;48.730;9.136;2023-03-13T06:58:39;0.65;;;0.57;;
31112;SDS011;17763;48.730;9.136;2023-03-13T07:01:06;0.68;;;0.63;;
31112;SDS011;17763;48.730;9.136;2023-03-13T07:03:33;1.13;;;0.60;;
31112;SDS011;17763;48.730;9.136;2023-03-13T07:05:59;1.20;;;0.50;;
31112;SDS011;17763;48.730;9.136;2023-03-13T07:08:26;2.67;;;1.05;;
31112;SDS011;17763;48.730;9.136;2023-03-13T07:10:53;2.55;;;0.80;;
31112;SDS011;17763;48.730;9.136;2023-03-13T07:13:23;0.45;;;0.40;;
31112;SDS011;17763;48.730;9.136;2023-03-13T07:15:48;0.60;;;0.60;;
31112;SDS011;17763;48.730;9.136;2023-03-13T07:18:14;0.98;;;0.45;;
31112;SDS011;17763;48.730;9.136;2023-03-13T07:20:40;0.55;;;0.55;;
31112;SDS011;17763;48.730;9.136;2023-03-13T07:23:05;0.88;;;0.60;;
31112;SDS011;17763;48.730;9.136;2023-03-13T07:25:31;0.55;;;0.50;;
31112;SDS011;17763;48.730;9.136;2023-03-13T07:27:56;0.50;;;0.50;;
31112;SDS011;17763;48.730;9.136;2023-03-13T07:30:25;0.60;;;0.60;;
31112;SDS011;17763;48.730;9.136;2023-03-13T07:32:51;0.45;;;0.45;;
31112;SDS011;17763;48.730;9.136;2023-03-13T07:35:16;1.98;;;0.50;;
31112;SDS011;17763;48.730;9.136;2023-03-13T07:37:42;0.40;;;0.40;;
31112;SDS011;17763;48.730;9.136;2023-03-13T07:40:08;1.20;;;0.63;;
31112;SDS011;17763;48.730;9.136;2023-03-13T07:42:34;1.42;;;0.52;;
31112;SDS011;17763;48.730;9.136;2023-03-13T07:45:00;0.77;;;0.60;;
31112;SDS011;17763;48.730;9.136;2023-03-13T07:47:25;0.77;;;0.70;;
31112;SDS011;17763;48.730;9.136;2023-03-13T07:49:51;0.95;;;0.80;;
31112;SDS011;17763;48.730;9.136;2023-03-13T07:52:17;0.82;;;0.77;;
31112;SDS011;17763;48.730;9.136;2023-03-13T07:54:43;1.30;;;0.63;;
31112;SDS011;17763;48.730;9.136;2023-03-13T07:57:12;0.55;;;0.55;;
31112;SDS011;17763;48.730;9.136;2023-03-13T07:59:37;1.10;;;0.60;;
31112;SDS011;17763;48.730;9.136;2023-03-13T08:02:03;0.90;;;0.52;;
31112;SDS011;17763;48.730;9.136;2023-03-13T08:04:29;0.90;;;0.70;;
31112;SDS011;17763;48.730;9.136;2023-03-13T08:06:54;1.00;;;0.50;;
31112;SDS011;17763;48.730;9.136;2023-03-13T08:09:23;0.98;;;0.60;;
31112;SDS011;17763;48.730;9.136;2023-03-13T08:11:49;1.85;;;0.55;;
31112;SDS011;17763;48.730;9.136;2023-03-13T08:14:17;0.60;;;0.60;;
31112;SDS011;17763;48.730;9.136;2023-03-13T08:16:43;0.70;;;0.70;;
31112;SDS011;17763;48.730;9.136;2023-03-13T08:19:08;0.52;;;0.52;;
31112;SDS011;17763;48.730;9.136;2023-03-13T08:21:35;0.82;;;0.60;;
31112;SDS011;17763;48.730;9.136;2023-03-13T08:24:02;1.77;;;0.70;;
31112;SDS011;17763;48.730;9.136;2023-03-13T08:26:31;1.90;;;0.60;;
31112;SDS011;17763;48.730;9.136;2023-03-13T08:29:01;0.98;;;0.80;;
31112;SDS011;17763;48.730;9.136;2023-03-13T08:31:30;1.63;;;0.57;;
31112;SDS011;17763;48.730;9.136;2023-03-13T08:33:57;1.25;;;0.77;;
31112;SDS011;17763;48.730;9.136;2023-03-13T08:36:24;1.85;;;0.93;;
31112;SDS011;17763;48.730;9.136;2023-03-13T08:38:54;0.75;;;0.75;;
31112;SDS011;17763;48.730;9.136;2023-03-13T08:41:23;1.10;;;1.00;;
31112;SDS011;17763;48.730;9.136;2023-03-13T08:43:52;2.95;;;0.77;;
31112;SDS011;17763;48.730;9.136;2023-03-13T08:46:18;0.98;;;0.90;;
31112;SDS011;17763;48.730;9.136;2023-03-13T08:48:43;1.67;;;0.90;;
31112;SDS011;17763;48.730;9.136;2023-03-13T08:51:13;0.80;;;0.80;;
31112;SDS011;17763;48.730;9.136;2023-03-13T08:53:40;1.95;;;0.90;;
31112;SDS011;17763;48.730;9.136;2023-03-13T08:56:07;0.93;;;0.90;;
31112;SDS011;17763;48.730;9.136;2023-03-13T08:58:40;1.00;;;1.00;;
31112;SDS011;17763;48.730;9.136;2023-03-13T09:01:07;4.68;;;1.00;;
31112;SDS011;17763;48.730;9.136;2023-03-13T09:03:36;1.20;;;0.90;;
31112;SDS011;17763;48.730;9.136;2023-03-13T09:06:04;1.23;;;0.85;;
31112;SDS011;17763;48.730;9.136;2023-03-13T09:08:31;3.63;;;1.30;;
31112;SDS011;17763;48.730;9.136;2023-03-13T09:10:58;1.85;;;1.10;;
31112;SDS011;17763;48.730;9.136;2023-03-13T09:13:29;5.50;;;1.48;;
31112;SDS011;17763;48.730;9.136;2023-03-13T09:15:59;1.00;;;0.90;;
31112;SDS011;17763;48.730;9.136;2023-03-13T09:18:27;1.25;;;1.00;;
31112;SDS011;17763;48.730;9.136;2023-03-13T09:20:53;2.15;;;1.17;;
31112;SDS011;17763;48.730;9.136;2023-03-13T09:23:20;0.90;;;0.90;;
31112;SDS011;17763;48.730;9.136;2023-03-13T09:25:47;4.07;;;0.93;;
31112;SDS011;17763;48.730;9.136;2023-03-13T09:28:13;2.63;;;0.80;;
31112;SDS011;17763;48.730;9.136;2023-03-13T09:30:39;2.00;;;0.98;;
31112;SDS011;17763;48.730;9.136;2023-03-13T09:33:07;4.57;;;1.08;;
31112;SDS011;17763;48.730;9.136;2023-03-13T09:35:32;3.15;;;0.90;;
31112;SDS011;17763;48.730;9.136;2023-03-13T09:37:58;2.45;;;1.08;;
31112;SDS011;17763;48.730;9.136;2023-03-13T09:40:24;1.17;;;1.08;;
31112;SDS011;17763;48.730;9.136;2023-03-13T09:42:54;3.95;;;1.10;;
31112;SDS011;17763;48.730;9.136;2023-03-13T09:45:33;3.20;;;1.20;;
31112;SDS011;17763;48.730;9.136;2023-03-13T09:48:06;1.88;;;0.98;;
31112;SDS011;17763;48.730;9.136;2023-03-13T09:50:43;1.40;;;1.02;;
31112;SDS011;17763;48.730;9.136;2023-03-13T09:53:17;2.55;;;1.13;;
31112;SDS011;17763;48.730;9.136;2023-03-13T09:55:55;2.30;;;1.10;;
31112;SDS011;17763;48.730;9.136;2023-03-13T09:58:22;1.55;;;1.40;;
31112;SDS011;17763;48.730;9.136;2023-03-13T10:00:53;2.65;;;1.17;;
31112;SDS011;17763;48.730;9.136;2023-03-13T10:03:28;3.00;;;1.30;;
31112;SDS011;17763;48.730;9.136;2023-03-13T10:06:05;3.60;;;0.95;;
31112;SDS011;17763;48.730;9.136;2023-03-13T10:08:42;1.50;;;1.08;;
31112;SDS011;17763;48.730;9.136;2023-03-13T10:11:19;3.00;;;1.40;;
31112;SDS011;17763;48.730;9.136;2023-03-13T10:17:16;2.45;;;1.17;;
31112;SDS011;17763;48.730;9.136;2023-03-13T10:19:54;4.82;;;1.58;;
31112;SDS011;17763;48.730;9.136;2023-03-13T10:22:40;3.47;;;1.48;;
31112;SDS011;17763;48.730;9.136;2023-03-13T10:25:18;1.25;;;1.10;;
31112;SDS011;17763;48.730;9.136;2023-03-13T10:27:56;1.73;;;1.63;;
31112;SDS011;17763;48.730;9.136;2023-03-13T10:30:26;2.50;;;1.77;;
31112;SDS011;17763;48.730;9.136;2023-03-13T10:32:56;2.00;;;1.55;;
31112;SDS011;17763;48.730;9.136;2023-03-13T10:35:36;1.77;;;1.45;;
31112;SDS011;17763;48.730;9.136;2023-03-13T10:38:17;4.07;;;1.77;;
31112;SDS011;17763;48.730;9.136;2023-03-13T10:40:49;2.47;;;1.27;;
31112;SDS011;17763;48.730;9.136;2023-03-13T10:43:26;2.30;;;1.60;;
31112;SDS011;17763;48.730;9.136;2023-03-13T10:45:52;3.00;;;1.52;;
31112;SDS011;17763;48.730;9.136;2023-03-13T10:48:20;1.70;;;1.60;;
31112;SDS011;17763;48.730;9.136;2023-03-13T10:50:48;2.25;;;1.20;;
31112;SDS011;17763;48.730;9.136;2023-03-13T10:53:30;2.38;;;1.10;;
31112;SDS011;17763;48.730;9.136;2023-03-13T10:58:49;1.50;;;1.40;;
31112;SDS011;17763;48.730;9.136;2023-03-13T11:01:27;1.37;;;1.27;;
31112;SDS011;17763;48.730;9.136;2023-03-13T11:04:00;1.50;;;1.40;;
31112;SDS011;17763;48.730;9.136;2023-03-13T11:07:00;2.90;;;1.38;;
31112;SDS011;17763;48.730;9.136;2023-03-13T11:09:28;3.05;;;1.55;;
31112;SDS011;17763;48.730;9.136;2023-03-13T11:11:55;2.38;;;1.38;;
31112;SDS011;17763;48.730;9.136;2023-03-13T11:14:27;2.28;;;1.30;;
31112;SDS011;17763;48.730;9.136;2023-03-13T11:17:00;2.97;;;1.60;;
31112;SDS011;17763;48.730;9.136;2023-03-13T11:19:36;2.78;;;1.30;;
31112;SDS011;17763;48.730;9.136;2023-03-13T11:35:59;2.95;;;1.30;;
31112;SDS011;17763;48.730;9.136;2023-03-13T11:38:35;1.92;;;1.63;;
31112;SDS011;17763;48.730;9.136;2023-03-13T11:41:12;2.63;;;1.38;;
31112;SDS011;17763;48.730;9.136;2023-03-13T11:44:21;1.85;;;1.50;;
31112;SDS011;17763;48.730;9.136;2023-03-13T11:49:54;3.53;;;1.50;;
31112;SDS011;17763;48.730;9.136;2023-03-13T11:52:57;2.83;;;1.38;;
31112;SDS011;17763;48.730;9.136;2023-03-13T12:01:26;2.20;;;1.30;;
31112;SDS011;17763;48.730;9.136;2023-03-13T12:04:00;2.90;;;1.40;;
31112;SDS011;17763;48.730;9.136;2023-03-13T12:06:51;2.53;;;1.40;;
31112;SDS011;17763;48.730;9.136;2023-03-13T12:14:47;2.38;;;1.00;;
31112;SDS011;17763;48.730;9.136;2023-03-13T12:19:54;1.50;;;1.10;;
31112;SDS011;17763;48.730;9.136;2023-03-13T12:22:27;0.80;;;0.80;;
31112;SDS011;17763;48.730;9.136;2023-03-13T12:25:17;3.35;;;1.30;;
31112;SDS011;17763;48.730;9.136;2023-03-13T12:27:51;2.60;;;1.33;;
31112;SDS011;17763;48.730;9.136;2023-03-13T12:30:30;2.08;;;0.95;;
31112;SDS011;17763;48.730;9.136;2023-03-13T12:35:43;1.52;;;0.90;;
31112;SDS011;17763;48.730;9.136;2023-03-13T12:38:19;2.50;;;1.08;;
31112;SDS011;17763;48.730;9.136;2023-03-13T12:43:39;1.73;;;0.90;;
31112;SDS011;17763;48.730;9.136;2023-03-13T12:51:30;4.35;;;1.00;;
31112;SDS011;17763;48.730;9.136;2023-03-13T12:54:03;1.70;;;0.95;;
31112;SDS011;17763;48.730;9.136;2023-03-13T12:56:52;5.00;;;0.93;;
31112;SDS011;17763;48.730;9.136;2023-03-13T12:59:22;2.10;;;1.10;;
31112;SDS011;17763;48.730;9.136;2023-03-13T13:01:59;1.40;;;0.90;;
31112;SDS011;17763;48.730;9.136;2023-03-13T13:04:29;1.45;;;0.98;;
31112;SDS011;17763;48.730;9.136;2023-03-13T13:07:01;2.78;;;0.68;;
31112;SDS011;17763;48.730;9.136;2023-03-13T13:23:29;1.08;;;0.90;;
31112;SDS011;17763;48.730;9.136;2023-03-13T13:28:53;1.58;;;0.70;;
31112;SDS011;17763;48.730;9.136;2023-03-13T13:34:08;0.70;;;0.70;;
31112;SDS011;17763;48.730;9.136;2023-03-13T13:37:02;1.77;;;0.80;;
31112;SDS011;17763;48.730;9.136;2023-03-13T13:39:51;3.13;;;0.70;;
31112;SDS011;17763;48.730;9.136;2023-03-13T13:44:58;1.95;;;0.70;;
31112;SDS011;17763;48.730;9.136;2023-03-13T13:47:29;3.03;;;0.70;;
31112;SDS011;17763;48.730;9.136;2023-03-13T13:49:58;1.42;;;0.80;;
31112;SDS011;17763;48.730;9.136;2023-03-13T14:03:36;3.83;;;0.90;;
31112;SDS011;17763;48.730;9.136;2023-03-13T14:06:17;2.72;;;1.00;;
31112;SDS011;17763;48.730;9.136;2023-03-13T14:08:56;3.75;;;0.70;;
31112;SDS011;17763;48.730;9.136;2023-03-13T14:11:40;6.88;;;1.00;;
31112;SDS011;17763;48.730;9.136;2023-03-13T14:14:15;3.80;;;0.75;;
31112;SDS011;17763;48.730;9.136;2023-03-13T14:16:43;9.38;;;1.70;;
31112;SDS011;17763;48.730;9.136;2023-03-13T14:19:26;1.08;;;0.82;;
31112;SDS011;17763;48.730;9.136;2023-03-13T14:22:00;2.30;;;1.13;;
31112;SDS011;17763;48.730;9.136;2023-03-13T14:24:30;2.88;;;1.25;;
31112;SDS011;17763;48.730;9.136;2023-03-13T14:26:56;1.08;;;0.80;;
31112;SDS011;17763;48.730;9.136;2023-03-13T14:29:22;1.52;;;0.70;;
31112;SDS011;17763;48.730;9.136;2023-03-13T14:31:52;1.33;;;0.63;;
31112;SDS011;17763;48.730;9.136;2023-03-13T14:34:19;2.78;;;0.90;;
31112;SDS011;17763;48.730;9.136;2023-03-13T14:39:19;1.15;;;0.80;;
31112;SDS011;17763;48.730;9.136;2023-03-13T14:44:38;1.48;;;0.98;;
31112;SDS011;17763;48.730;9.136;2023-03-13T14:47:23;0.75;;;0.73;;
31112;SDS011;17763;48.730;9.136;2023-03-13T14:52:28;2.67;;;0.95;;
31112;SDS011;17763;48.730;9.136;2023-03-13T14:57:54;4.38;;;0.98;;
31112;SDS011;17763;48.730;9.136;2023-03-13T15:05:41;2.00;;;0.70;;
31112;SDS011;17763;48.730;9.136;2023-03-13T15:10:45;1.42;;;0.98;;
31112;SDS011;17763;48.730;9.136;2023-03-13T15:13:21;2.25;;;1.00;;
31112;SDS011;17763;48.730;9.136;2023-03-13T15:15:49;0.60;;;0.60;;
31112;SDS011;17763;48.730;9.136;2023-03-13T15:18:19;2.00;;;1.00;;
31112;SDS011;17763;48.730;9.136;2023-03-13T15:23:35;2.15;;;0.88;;
31112;SDS011;17763;48.730;9.136;2023-03-13T15:26:01;1.52;;;0.93;;
31112;SDS011;17763;48.730;9.136;2023-03-13T15:28:27;0.82;;;0.80;;
31112;SDS011;17763;48.730;9.136;2023-03-13T15:30:53;3.35;;;0.77;;
31112;SDS011;17763;48.730;9.136;2023-03-13T15:33:19;2.50;;;0.90;;
31112;SDS011;17763;48.730;9.136;2023-03-13T15:35:47;2.58;;;0.70;;
31112;SDS011;17763;48.730;9.136;2023-03-13T15:40:41;1.13;;;0.90;;
31112;SDS011;17763;48.730;9.136;2023-03-13T15:43:07;1.10;;;0.80;;
31112;SDS011;17763;48.730;9.136;2023-03-13T15:45:34;3.63;;;0.88;;
31112;SDS011;17763;48.730;9.136;2023-03-13T15:48:02;3.40;;;0.98;;
31112;SDS011;17763;48.730;9.136;2023-03-13T15:50:36;3.65;;;1.13;;
31112;SDS011;17763;48.730;9.136;2023-03-13T15:53:01;2.03;;;0.80;;
31112;SDS011;17763;48.730;9.136;2023-03-13T15:55:30;1.65;;;1.05;;
31112;SDS011;17763;48.730;9.136;2023-03-13T15:57:56;1.75;;;1.27;;
31112;SDS011;17763;48.730;9.136;2023-03-13T16:00:24;2.60;;;0.70;;
31112;SDS011;17763;48.730;9.136;2023-03-13T16:02:50;1.13;;;0.82;;
31112;SDS011;17763;48.730;9.136;2023-03-13T16:05:16;1.58;;;0.80;;
31112;SDS011;17763;48.730;9.136;2023-03-13T16:07:42;2.00;;;0.80;;
31112;SDS011;17763;48.730;9.136;2023-03-13T16:10:14;2.53;;;0.80;;
31112;SDS011;17763;48.730;9.136;2023-03-13T16:12:48;0.80;;;0.63;;
31112;SDS011;17763;48.730;9.136;2023-03-13T16:15:13;2.53;;;0.70;;
31112;SDS011;17763;48.730;9.136;2023-03-13T16:17:39;2.30;;;0.90;;
31112;SDS011;17763;48.730;9.136;2023-03-13T16:20:10;2.47;;;1.25;;
31112;SDS011;17763;48.730;9.136;2023-03-13T16:22:40;3.33;;;0.75;;
31112;SDS011;17763;48.730;9.136;2023-03-13T16:25:06;0.80;;;0.80;;
31112;SDS011;17763;48.730;9.136;2023-03-13T16:27:33;1.70;;;0.68;;
31112;SDS011;17763;48.730;9.136;2023-03-13T16:29:58;1.13;;;1.00;;
31112;SDS011;17763;48.730;9.136;2023-03-13T16:32:26;4.32;;;1.00;;
31112;SDS011;17763;48.730;9.136;2023-03-13T16:34:52;4.45;;;1.33;;
31112;SDS011;17763;48.730;9.136;2023-03-13T16:37:18;1.15;;;1.00;;
31112;SDS011;17763;48.730;9.136;2023-03-13T16:39:44;2.08;;;0.93;;
31112;SDS011;17763;48.730;9.136;2023-03-13T16:42:11;1.05;;;0.88;;
31112;SDS011;17763;48.730;9.136;2023-03-13T16:44:37;1.55;;;0.90;;
31112;SDS011;17763;48.730;9.136;2023-03-13T16:47:07;2.45;;;1.00;;
31112;SDS011;17763;48.730;9.136;2023-03-13T16:49:40;2.67;;;0.98;;
31112;SDS011;17763;48.730;9.136;2023-03-13T16:52:08;3.80;;;1.23;;
31112;SDS011;17763;48.730;9.136;2023-03-13T16:54:37;5.85;;;1.17;;
31112;SDS011;17763;48.730;9.136;2023-03-13T16:57:04;0.80;;;0.70;;
31112;SDS011;17763;48.730;9.136;2023-03-13T16:59:34;2.58;;;0.90;;
31112;SDS011;17763;48.730;9.136;2023-03-13T17:01:59;1.20;;;1.10;;